createdAt,value
2022-11-01T00:04:56.314Z,100.00
2022-11-01T00:09:59.042Z,100.00
2022-11-01T00:15:01.745Z,100.00
2022-11-01T00:20:04.515Z,100.00
2022-11-01T00:25:07.183Z,100.00
2022-11-01T00:30:11.079Z,100.00
2022-11-01T00:35:13.783Z,100.00
2022-11-01T00:40:23.314Z,100.00
2022-11-01T00:45:26.522Z,100.00
2022-11-01T00:50:29.223Z,100.00
2022-11-01T00:55:31.923Z,100.00
2022-11-01T01:00:34.644Z,100.00
2022-11-01T01:05:37.301Z,100.00
2022-11-01T01:10:40.481Z,100.00
2022-11-01T01:15:43.199Z,100.00
2022-11-01T01:20:45.919Z,100.00
2022-11-01T01:25:48.613Z,100.00
2022-11-01T01:30:51.308Z,100.00
2022-11-01T01:35:53.991Z,100.00
2022-11-01T01:41:21.238Z,100.00
2022-11-01T01:46:23.940Z,100.00
2022-11-01T01:51:26.727Z,100.00
2022-11-01T01:56:29.445Z,100.00
2022-11-01T02:01:33.602Z,100.00
2022-11-01T02:06:36.552Z,100.00
2022-11-01T02:11:39.237Z,100.00
2022-11-01T02:16:41.876Z,100.00
2022-11-01T02:21:44.588Z,100.00
2022-11-01T02:26:47.162Z,100.00
2022-11-01T02:31:49.824Z,100.00
2022-11-01T02:36:52.574Z,100.00
2022-11-01T02:41:55.277Z,100.00
2022-11-01T02:47:03.761Z,100.00
2022-11-01T02:52:06.499Z,100.00
2022-11-01T02:57:09.131Z,100.00
2022-11-01T03:02:11.800Z,100.00
2022-11-01T03:07:14.423Z,100.00
2022-11-01T03:12:17.205Z,100.00
2022-11-01T03:17:19.779Z,100.00
2022-11-01T03:22:22.381Z,100.00
2022-11-01T03:27:25.044Z,100.00
2022-11-01T03:32:27.740Z,100.00
2022-11-01T03:37:30.452Z,100.00
2022-11-01T03:42:33.118Z,100.00
2022-11-01T03:47:35.842Z,100.00
2022-11-01T03:52:38.597Z,100.00
2022-11-01T03:57:42.835Z,100.00
2022-11-01T04:02:45.529Z,100.00
2022-11-01T04:07:48.268Z,100.00
2022-11-01T04:12:50.995Z,100.00
2022-11-01T04:18:11.207Z,100.00
2022-11-01T04:23:13.814Z,100.00
2022-11-01T04:28:16.492Z,100.00
2022-11-01T04:33:19.338Z,100.00
2022-11-01T04:38:21.974Z,100.00
2022-11-01T04:43:25.067Z,100.00
2022-11-01T04:48:28.539Z,100.00
2022-11-01T04:53:31.600Z,100.00
2022-11-01T04:58:39.973Z,100.00
2022-11-01T05:03:46.299Z,100.00
2022-11-01T05:08:49.853Z,100.00
2022-11-01T05:13:52.949Z,100.00
2022-11-01T05:18:56.026Z,100.00
2022-11-01T05:23:59.139Z,100.00
2022-11-01T05:29:08.848Z,100.00
2022-11-01T05:34:16.921Z,100.00
2022-11-01T05:39:20.117Z,100.00
2022-11-01T05:44:23.320Z,100.00
2022-11-01T05:49:26.499Z,100.00
2022-11-01T05:54:29.638Z,100.00
2022-11-01T05:59:32.860Z,100.00
2022-11-01T06:04:35.970Z,100.00
2022-11-01T06:09:39.391Z,100.00
2022-11-01T06:14:42.589Z,100.00
2022-11-01T06:19:45.771Z,100.00
2022-11-01T06:24:48.951Z,100.00
2022-11-01T06:29:52.127Z,100.00
2022-11-01T06:35:07.318Z,100.00
2022-11-01T06:40:13.162Z,100.00
2022-11-01T06:45:16.653Z,100.00
2022-11-01T06:50:19.855Z,100.00
2022-11-01T06:55:23.347Z,100.00
2022-11-01T07:00:26.502Z,100.00
2022-11-01T07:05:32.852Z,100.00
2022-11-01T07:10:39.233Z,100.00
2022-11-01T07:15:42.312Z,100.00
2022-11-01T07:25:49.583Z,100.00
2022-11-01T07:30:52.713Z,100.00
2022-11-01T07:35:55.782Z,100.00
2022-11-01T07:40:58.848Z,100.00
2022-11-01T07:46:04.216Z,100.00
2022-11-01T07:51:07.679Z,100.00
2022-11-01T07:56:10.838Z,100.00
2022-11-01T08:01:14.713Z,100.00
2022-11-01T08:06:18.230Z,100.00
2022-11-01T08:11:21.477Z,100.00
2022-11-01T08:16:24.846Z,100.00
2022-11-01T08:21:28.010Z,100.00
2022-11-01T08:26:31.544Z,100.00
2022-11-01T08:31:34.738Z,100.00
2022-11-01T08:36:37.951Z,100.00
2022-11-01T08:41:41.152Z,100.00
2022-11-01T08:46:44.282Z,100.00
2022-11-01T08:51:47.474Z,100.00
2022-11-01T08:56:50.624Z,100.00
2022-11-01T09:01:53.923Z,100.00
2022-11-01T09:06:57.096Z,100.00
2022-11-01T09:12:00.217Z,100.00
2022-11-01T09:17:03.303Z,100.00
2022-11-01T09:22:06.415Z,100.00
2022-11-01T09:27:09.929Z,100.00
2022-11-01T09:32:13.564Z,100.00
2022-11-01T09:37:16.753Z,100.00
2022-11-01T09:42:20.674Z,100.00
2022-11-01T09:47:23.880Z,100.00
2022-11-01T09:52:27.048Z,100.00
2022-11-01T09:57:30.282Z,100.00
2022-11-01T10:02:33.493Z,100.00
2022-11-01T10:07:37.377Z,100.00
2022-11-01T10:12:40.558Z,100.00
2022-11-01T10:17:47.090Z,100.00
2022-11-01T10:22:54.171Z,100.00
2022-11-01T10:27:57.386Z,100.00
2022-11-01T10:33:08.394Z,100.00
2022-11-01T10:38:24.968Z,100.00
2022-11-01T10:43:31.352Z,100.00
2022-11-01T10:48:40.306Z,100.00
2022-11-01T10:53:43.388Z,100.00
2022-11-01T10:58:46.747Z,97.08
2022-11-01T11:03:50.210Z,96.38
2022-11-01T11:08:53.298Z,92.92
2022-11-01T11:13:56.454Z,96.84
2022-11-01T11:18:59.624Z,93.35
2022-11-01T11:24:02.790Z,95.80
2022-11-01T11:29:05.977Z,97.19
2022-11-01T11:34:09.200Z,95.86
2022-11-01T11:39:12.436Z,93.48
2022-11-01T11:44:17.216Z,94.46
2022-11-01T11:49:20.441Z,92.92
2022-11-01T11:54:23.660Z,92.16
2022-11-01T11:59:28.511Z,89.15
2022-11-01T12:04:32.047Z,90.76
2022-11-01T12:09:35.644Z,88.90
2022-11-01T12:14:39.027Z,89.84
2022-11-01T12:19:42.339Z,91.74
2022-11-01T12:24:49.983Z,88.31
2022-11-01T12:29:53.301Z,86.81
2022-11-01T12:34:56.511Z,87.69
2022-11-01T12:39:59.700Z,89.69
2022-11-01T12:45:02.798Z,86.24
2022-11-01T12:50:05.918Z,90.17
2022-11-01T12:55:09.080Z,92.67
2022-11-01T13:00:32.447Z,94.01
2022-11-01T13:05:35.629Z,92.81
2022-11-01T13:10:39.172Z,92.08
2022-11-01T13:15:42.355Z,94.61
2022-11-01T13:20:45.695Z,95.77
2022-11-01T13:25:48.957Z,94.87
2022-11-01T13:30:52.588Z,97.72
2022-11-01T13:35:55.835Z,99.63
2022-11-01T13:40:59.038Z,100.00
2022-11-01T13:46:02.251Z,99.75
2022-11-01T13:51:05.484Z,98.65
2022-11-01T13:56:08.824Z,99.54
2022-11-01T14:01:12.169Z,100.00
2022-11-01T14:06:15.563Z,100.00
2022-11-01T14:11:21.942Z,100.00
2022-11-01T14:16:25.162Z,100.00
2022-11-01T14:21:28.645Z,100.00
2022-11-01T14:26:31.744Z,100.00
2022-11-01T14:31:35.163Z,100.00
2022-11-01T14:36:50.188Z,100.00
2022-11-01T14:41:56.238Z,100.00
2022-11-01T14:47:00.474Z,100.00
2022-11-01T14:52:03.626Z,100.00
2022-11-01T14:57:06.749Z,100.00
2022-11-01T15:02:10.014Z,100.00
2022-11-01T15:07:13.109Z,100.00
2022-11-01T15:12:16.213Z,100.00
2022-11-01T15:17:19.259Z,100.00
2022-11-01T15:22:22.494Z,100.00
2022-11-01T15:27:25.096Z,100.00
2022-11-01T15:32:28.183Z,100.00
2022-11-01T15:37:33.210Z,100.00
2022-11-01T15:42:35.973Z,100.00
2022-11-01T15:47:38.668Z,100.00
2022-11-01T15:52:41.434Z,100.00
2022-11-01T15:57:44.337Z,100.00
2022-11-01T16:02:47.038Z,100.00
2022-11-01T16:07:49.890Z,100.00
2022-11-01T16:12:52.613Z,100.00
2022-11-01T16:17:57.518Z,100.00
2022-11-01T16:23:03.349Z,100.00
2022-11-01T16:28:07.313Z,100.00
2022-11-01T16:33:10.189Z,100.00
2022-11-01T16:38:12.905Z,100.00
2022-11-01T16:43:15.619Z,100.00
2022-11-01T16:48:18.298Z,100.00
2022-11-01T16:53:21.001Z,100.00
2022-11-01T16:58:23.801Z,100.00
2022-11-01T17:03:26.591Z,100.00
2022-11-01T17:08:33.189Z,100.00
2022-11-01T17:13:35.935Z,100.00
2022-11-01T17:18:38.887Z,100.00
2022-11-01T17:23:41.570Z,100.00
2022-11-01T17:28:49.292Z,100.00
2022-11-01T17:33:54.909Z,100.00
2022-11-01T17:38:57.512Z,100.00
2022-11-01T17:44:00.110Z,100.00
2022-11-01T17:49:02.825Z,100.00
2022-11-01T17:54:05.526Z,100.00
2022-11-01T17:59:08.681Z,100.00
2022-11-01T18:04:11.605Z,100.00
2022-11-01T18:09:14.213Z,100.00
2022-11-01T18:14:17.125Z,100.00
2022-11-01T18:19:19.712Z,100.00
2022-11-01T18:24:22.796Z,100.00
2022-11-01T18:29:26.122Z,100.00
2022-11-01T18:34:29.218Z,100.00
2022-11-01T18:39:31.959Z,100.00
2022-11-01T18:44:34.568Z,100.00
2022-11-01T18:49:37.633Z,100.00
2022-11-01T18:54:40.356Z,100.00
2022-11-01T18:59:43.193Z,100.00
2022-11-01T19:04:46.337Z,100.00
2022-11-01T19:09:48.999Z,100.00
2022-11-01T19:14:51.827Z,100.00
2022-11-01T19:19:54.491Z,100.00
2022-11-01T19:24:57.141Z,100.00
2022-11-01T19:30:01.889Z,100.00
2022-11-01T19:35:04.529Z,100.00
2022-11-01T19:40:07.255Z,100.00
2022-11-01T19:45:10.071Z,100.00
2022-11-01T19:50:13.001Z,100.00
2022-11-01T19:55:15.975Z,100.00
2022-11-01T20:00:19.248Z,100.00
2022-11-01T20:05:23.117Z,100.00
2022-11-01T20:10:26.470Z,100.00
2022-11-01T20:15:29.906Z,100.00
2022-11-01T20:20:34.847Z,100.00
2022-11-01T20:25:38.709Z,100.00
2022-11-01T20:30:42.170Z,100.00
2022-11-01T20:35:45.021Z,100.00
2022-11-01T20:40:48.096Z,100.00
2022-11-01T20:45:51.035Z,100.00
2022-11-01T20:50:54.311Z,100.00
2022-11-01T20:55:57.138Z,100.00
2022-11-01T21:01:00.125Z,100.00
2022-11-01T21:06:03.116Z,100.00
2022-11-01T21:11:05.932Z,100.00
2022-11-01T21:16:08.777Z,100.00
2022-11-01T21:21:11.571Z,100.00
2022-11-01T21:26:15.192Z,100.00
2022-11-01T21:31:18.041Z,100.00
2022-11-01T21:36:21.062Z,100.00
2022-11-01T21:41:23.893Z,100.00
2022-11-01T21:46:26.558Z,100.00
2022-11-01T21:51:29.578Z,100.00
2022-11-01T21:56:32.336Z,100.00
2022-11-01T22:01:35.171Z,100.00
2022-11-01T22:06:38.040Z,100.00
2022-11-01T22:11:40.712Z,100.00
2022-11-01T22:16:43.475Z,100.00
2022-11-01T22:26:53.894Z,100.00
2022-11-01T22:31:56.916Z,100.00
2022-11-01T22:36:59.607Z,100.00
2022-11-01T22:42:04.794Z,100.00
2022-11-01T22:47:07.513Z,100.00
2022-11-01T22:52:11.032Z,100.00
2022-11-01T22:57:13.662Z,100.00
2022-11-01T23:02:16.486Z,100.00
2022-11-01T23:07:19.253Z,100.00
2022-11-01T23:12:55.041Z,100.00
2022-11-01T23:17:58.173Z,100.00
2022-11-01T23:23:01.638Z,100.00
2022-11-01T23:28:04.529Z,100.00
2022-11-01T23:33:08.065Z,100.00
2022-11-01T23:38:10.816Z,100.00
2022-11-01T23:43:13.573Z,100.00
2022-11-01T23:48:16.197Z,100.00
2022-11-01T23:53:18.895Z,100.00
2022-11-01T23:58:21.659Z,100.00
